sensor_id;sensor_type;location;lat;lon;timestamp;temperature;humidity
11491;DHT22;5802;52.832;4.758;2022-10-16T00:01:52;22.50;53.40
11491;DHT22;5802;52.832;4.758;2022-10-16T00:04:19;22.50;53.40
11491;DHT22;5802;52.832;4.758;2022-10-16T00:06:46;22.50;53.40
11491;DHT22;5802;52.832;4.758;2022-10-16T00:09:14;22.50;53.40
11491;DHT22;5802;52.832;4.758;2022-10-16T00:11:41;22.50;53.40
11491;DHT22;5802;52.832;4.758;2022-10-16T00:14:10;22.40;53.40
11491;DHT22;5802;52.832;4.758;2022-10-16T00:16:37;22.40;53.40
11491;DHT22;5802;52.832;4.758;2022-10-16T00:19:04;22.40;53.40
11491;DHT22;5802;52.832;4.758;2022-10-16T00:21:31;22.40;53.40
11491;DHT22;5802;52.832;4.758;2022-10-16T00:23:59;22.40;53.40
11491;DHT22;5802;52.832;4.758;2022-10-16T00:26:29;22.40;53.40
11491;DHT22;5802;52.832;4.758;2022-10-16T00:29:03;22.40;53.40
11491;DHT22;5802;52.832;4.758;2022-10-16T00:31:30;22.40;53.40
11491;DHT22;5802;52.832;4.758;2022-10-16T00:33:57;22.40;53.40
11491;DHT22;5802;52.832;4.758;2022-10-16T00:36:25;22.40;53.40
11491;DHT22;5802;52.832;4.758;2022-10-16T00:38:52;22.40;54.00
11491;DHT22;5802;52.832;4.758;2022-10-16T00:41:20;22.40;53.40
11491;DHT22;5802;52.832;4.758;2022-10-16T00:43:50;22.40;53.40
11491;DHT22;5802;52.832;4.758;2022-10-16T00:46:20;22.40;53.40
11491;DHT22;5802;52.832;4.758;2022-10-16T00:48:51;22.40;53.40
11491;DHT22;5802;52.832;4.758;2022-10-16T00:51:20;22.40;53.40
11491;DHT22;5802;52.832;4.758;2022-10-16T00:53:48;22.40;53.40
11491;DHT22;5802;52.832;4.758;2022-10-16T00:56:16;22.40;53.40
11491;DHT22;5802;52.832;4.758;2022-10-16T00:58:43;22.40;53.50
11491;DHT22;5802;52.832;4.758;2022-10-16T01:01:11;22.40;53.40
11491;DHT22;5802;52.832;4.758;2022-10-16T01:03:38;22.40;53.50
11491;DHT22;5802;52.832;4.758;2022-10-16T01:06:17;22.40;53.40
11491;DHT22;5802;52.832;4.758;2022-10-16T01:08:57;22.40;53.50
11491;DHT22;5802;52.832;4.758;2022-10-16T01:11:29;22.40;53.40
11491;DHT22;5802;52.832;4.758;2022-10-16T01:14:04;22.30;53.40
11491;DHT22;5802;52.832;4.758;2022-10-16T01:16:38;22.30;53.50
11491;DHT22;5802;52.832;4.758;2022-10-16T01:19:12;22.30;53.50
11491;DHT22;5802;52.832;4.758;2022-10-16T01:21:42;22.30;53.50
11491;DHT22;5802;52.832;4.758;2022-10-16T01:24:17;22.30;53.40
11491;DHT22;5802;52.832;4.758;2022-10-16T01:27:08;22.30;53.40
11491;DHT22;5802;52.832;4.758;2022-10-16T01:29:41;22.30;53.50
11491;DHT22;5802;52.832;4.758;2022-10-16T01:32:15;22.30;53.50
11491;DHT22;5802;52.832;4.758;2022-10-16T01:34:47;22.30;53.50
11491;DHT22;5802;52.832;4.758;2022-10-16T01:37:24;22.30;53.50
11491;DHT22;5802;52.832;4.758;2022-10-16T01:39:53;22.30;53.40
11491;DHT22;5802;52.832;4.758;2022-10-16T01:42:27;22.30;53.40
11491;DHT22;5802;52.832;4.758;2022-10-16T01:44:57;22.30;53.40
11491;DHT22;5802;52.832;4.758;2022-10-16T01:47:26;22.30;54.10
11491;DHT22;5802;52.832;4.758;2022-10-16T01:49:54;22.30;53.40
11491;DHT22;5802;52.832;4.758;2022-10-16T01:52:23;22.30;53.40
11491;DHT22;5802;52.832;4.758;2022-10-16T01:54:53;22.30;53.40
11491;DHT22;5802;52.832;4.758;2022-10-16T01:57:24;22.30;53.40
11491;DHT22;5802;52.832;4.758;2022-10-16T01:59:56;22.30;53.40
11491;DHT22;5802;52.832;4.758;2022-10-16T02:02:27;22.30;53.40
11491;DHT22;5802;52.832;4.758;2022-10-16T02:04:59;22.30;53.40
11491;DHT22;5802;52.832;4.758;2022-10-16T02:07:27;22.30;53.40
11491;DHT22;5802;52.832;4.758;2022-10-16T02:09:54;22.30;53.30
11491;DHT22;5802;52.832;4.758;2022-10-16T02:12:26;22.30;53.30
11491;DHT22;5802;52.832;4.758;2022-10-16T02:14:54;22.30;53.30
11491;DHT22;5802;52.832;4.758;2022-10-16T02:17:21;22.30;53.30
11491;DHT22;5802;52.832;4.758;2022-10-16T02:19:50;22.30;53.40
11491;DHT22;5802;52.832;4.758;2022-10-16T02:22:21;22.30;53.30
11491;DHT22;5802;52.832;4.758;2022-10-16T02:24:54;22.30;53.30
11491;DHT22;5802;52.832;4.758;2022-10-16T02:27:26;22.30;53.30
11491;DHT22;5802;52.832;4.758;2022-10-16T02:29:58;22.30;53.30
11491;DHT22;5802;52.832;4.758;2022-10-16T02:32:30;22.30;53.30
11491;DHT22;5802;52.832;4.758;2022-10-16T02:34:59;22.30;53.30
11491;DHT22;5802;52.832;4.758;2022-10-16T02:37:26;22.30;53.30
11491;DHT22;5802;52.832;4.758;2022-10-16T02:39:55;22.30;53.30
11491;DHT22;5802;52.832;4.758;2022-10-16T02:42:28;22.30;53.30
11491;DHT22;5802;52.832;4.758;2022-10-16T02:44:54;22.30;53.30
11491;DHT22;5802;52.832;4.758;2022-10-16T02:47:21;22.30;53.20
11491;DHT22;5802;52.832;4.758;2022-10-16T02:49:48;22.30;53.20
11491;DHT22;5802;52.832;4.758;2022-10-16T02:52:15;22.30;53.30
11491;DHT22;5802;52.832;4.758;2022-10-16T02:54:41;22.30;53.20
11491;DHT22;5802;52.832;4.758;2022-10-16T02:57:08;22.30;53.30
11491;DHT22;5802;52.832;4.758;2022-10-16T02:59:36;22.30;53.20
11491;DHT22;5802;52.832;4.758;2022-10-16T03:02:04;22.30;53.20
11491;DHT22;5802;52.832;4.758;2022-10-16T03:04:31;22.30;53.20
11491;DHT22;5802;52.832;4.758;2022-10-16T03:06:57;22.30;53.20
11491;DHT22;5802;52.832;4.758;2022-10-16T03:09:24;22.30;53.30
11491;DHT22;5802;52.832;4.758;2022-10-16T03:11:50;22.30;53.20
11491;DHT22;5802;52.832;4.758;2022-10-16T03:14:17;22.30;53.20
11491;DHT22;5802;52.832;4.758;2022-10-16T03:16:45;22.30;53.20
11491;DHT22;5802;52.832;4.758;2022-10-16T03:19:12;22.30;53.20
11491;DHT22;5802;52.832;4.758;2022-10-16T03:21:39;22.30;53.20
11491;DHT22;5802;52.832;4.758;2022-10-16T03:24:06;22.30;53.20
11491;DHT22;5802;52.832;4.758;2022-10-16T03:26:32;22.30;53.20
11491;DHT22;5802;52.832;4.758;2022-10-16T03:28:59;22.30;53.20
11491;DHT22;5802;52.832;4.758;2022-10-16T03:31:27;22.30;53.20
11491;DHT22;5802;52.832;4.758;2022-10-16T03:33:56;22.30;53.20
11491;DHT22;5802;52.832;4.758;2022-10-16T03:36:22;22.30;53.20
11491;DHT22;5802;52.832;4.758;2022-10-16T03:38:49;22.20;53.20
11491;DHT22;5802;52.832;4.758;2022-10-16T03:41:16;22.20;53.20
11491;DHT22;5802;52.832;4.758;2022-10-16T03:43:43;22.20;53.20
11491;DHT22;5802;52.832;4.758;2022-10-16T03:46:10;22.20;53.20
11491;DHT22;5802;52.832;4.758;2022-10-16T03:48:36;22.20;53.20
11491;DHT22;5802;52.832;4.758;2022-10-16T03:51:06;22.20;53.20
11491;DHT22;5802;52.832;4.758;2022-10-16T03:53:33;22.20;53.50
11491;DHT22;5802;52.832;4.758;2022-10-16T03:55:59;22.20;53.20
11491;DHT22;5802;52.832;4.758;2022-10-16T03:58:26;22.20;53.20
11491;DHT22;5802;52.832;4.758;2022-10-16T04:00:53;22.20;53.20
11491;DHT22;5802;52.832;4.758;2022-10-16T04:03:20;22.20;53.20
11491;DHT22;5802;52.832;4.758;2022-10-16T04:05:46;22.20;53.20
11491;DHT22;5802;52.832;4.758;2022-10-16T04:08:15;22.20;53.20
11491;DHT22;5802;52.832;4.758;2022-10-16T04:10:42;22.20;53.20
11491;DHT22;5802;52.832;4.758;2022-10-16T04:13:09;22.20;53.20
11491;DHT22;5802;52.832;4.758;2022-10-16T04:15:35;22.20;53.20
11491;DHT22;5802;52.832;4.758;2022-10-16T04:18:02;22.20;53.20
11491;DHT22;5802;52.832;4.758;2022-10-16T04:20:29;22.20;53.30
11491;DHT22;5802;52.832;4.758;2022-10-16T04:22:56;22.20;53.30
11491;DHT22;5802;52.832;4.758;2022-10-16T04:25:24;22.20;53.30
11491;DHT22;5802;52.832;4.758;2022-10-16T04:27:52;22.20;53.30
11491;DHT22;5802;52.832;4.758;2022-10-16T04:30:19;22.20;53.30
11491;DHT22;5802;52.832;4.758;2022-10-16T04:32:48;22.20;53.30
11491;DHT22;5802;52.832;4.758;2022-10-16T04:35:15;22.20;53.30
11491;DHT22;5802;52.832;4.758;2022-10-16T04:37:41;22.20;53.30
11491;DHT22;5802;52.832;4.758;2022-10-16T04:40:09;22.20;53.30
11491;DHT22;5802;52.832;4.758;2022-10-16T04:42:37;22.20;53.40
11491;DHT22;5802;52.832;4.758;2022-10-16T04:45:04;22.20;53.30
11491;DHT22;5802;52.832;4.758;2022-10-16T04:47:31;22.20;53.30
11491;DHT22;5802;52.832;4.758;2022-10-16T04:49:58;22.20;53.30
11491;DHT22;5802;52.832;4.758;2022-10-16T04:52:27;22.20;53.30
11491;DHT22;5802;52.832;4.758;2022-10-16T04:54:54;22.20;53.40
11491;DHT22;5802;52.832;4.758;2022-10-16T04:57:25;22.20;53.40
11491;DHT22;5802;52.832;4.758;2022-10-16T04:59:53;22.20;53.40
11491;DHT22;5802;52.832;4.758;2022-10-16T05:02:20;22.20;53.40
11491;DHT22;5802;52.832;4.758;2022-10-16T05:04:47;22.20;53.40
11491;DHT22;5802;52.832;4.758;2022-10-16T05:07:13;22.20;53.30
11491;DHT22;5802;52.832;4.758;2022-10-16T05:09:40;22.20;53.30
11491;DHT22;5802;52.832;4.758;2022-10-16T05:12:07;22.20;53.40
11491;DHT22;5802;52.832;4.758;2022-10-16T05:14:34;22.20;53.40
11491;DHT22;5802;52.832;4.758;2022-10-16T05:17:02;22.20;53.40
11491;DHT22;5802;52.832;4.758;2022-10-16T05:19:29;22.20;53.40
11491;DHT22;5802;52.832;4.758;2022-10-16T05:21:55;22.20;53.40
11491;DHT22;5802;52.832;4.758;2022-10-16T05:24:22;22.20;53.40
11491;DHT22;5802;52.832;4.758;2022-10-16T05:26:50;22.20;53.40
11491;DHT22;5802;52.832;4.758;2022-10-16T05:29:16;22.20;54.00
11491;DHT22;5802;52.832;4.758;2022-10-16T05:31:43;22.20;53.40
11491;DHT22;5802;52.832;4.758;2022-10-16T05:34:11;22.20;53.40
11491;DHT22;5802;52.832;4.758;2022-10-16T05:36:38;22.20;53.40
11491;DHT22;5802;52.832;4.758;2022-10-16T05:39:04;22.20;53.30
11491;DHT22;5802;52.832;4.758;2022-10-16T05:41:31;22.20;53.30
11491;DHT22;5802;52.832;4.758;2022-10-16T05:43:58;22.20;53.30
11491;DHT22;5802;52.832;4.758;2022-10-16T05:46:25;22.20;53.40
11491;DHT22;5802;52.832;4.758;2022-10-16T05:48:52;22.20;53.40
11491;DHT22;5802;52.832;4.758;2022-10-16T05:51:20;22.20;53.30
11491;DHT22;5802;52.832;4.758;2022-10-16T05:53:46;22.20;53.30
11491;DHT22;5802;52.832;4.758;2022-10-16T05:56:13;22.20;53.40
11491;DHT22;5802;52.832;4.758;2022-10-16T05:58:41;22.20;53.30
11491;DHT22;5802;52.832;4.758;2022-10-16T06:01:11;22.20;53.30
11491;DHT22;5802;52.832;4.758;2022-10-16T06:03:38;22.20;53.30
11491;DHT22;5802;52.832;4.758;2022-10-16T06:06:09;22.20;53.30
11491;DHT22;5802;52.832;4.758;2022-10-16T06:08:38;22.20;53.30
11491;DHT22;5802;52.832;4.758;2022-10-16T06:11:06;22.20;53.30
11491;DHT22;5802;52.832;4.758;2022-10-16T06:13:33;22.20;53.30
11491;DHT22;5802;52.832;4.758;2022-10-16T06:16:01;22.20;53.30
11491;DHT22;5802;52.832;4.758;2022-10-16T06:18:29;22.20;53.30
11491;DHT22;5802;52.832;4.758;2022-10-16T06:20:56;22.20;53.30
11491;DHT22;5802;52.832;4.758;2022-10-16T06:23:23;22.20;53.30
11491;DHT22;5802;52.832;4.758;2022-10-16T06:25:51;22.20;53.30
11491;DHT22;5802;52.832;4.758;2022-10-16T06:28:18;22.20;53.30
11491;DHT22;5802;52.832;4.758;2022-10-16T06:30:45;22.20;53.30
11491;DHT22;5802;52.832;4.758;2022-10-16T06:33:12;22.20;53.30
11491;DHT22;5802;52.832;4.758;2022-10-16T06:35:39;22.20;53.30
11491;DHT22;5802;52.832;4.758;2022-10-16T06:38:06;22.20;53.30
11491;DHT22;5802;52.832;4.758;2022-10-16T06:40:32;22.20;53.30
11491;DHT22;5802;52.832;4.758;2022-10-16T06:43:00;22.20;53.30
11491;DHT22;5802;52.832;4.758;2022-10-16T06:45:27;22.20;53.30
11491;DHT22;5802;52.832;4.758;2022-10-16T06:47:54;22.20;53.30
11491;DHT22;5802;52.832;4.758;2022-10-16T06:50:21;22.20;53.40
11491;DHT22;5802;52.832;4.758;2022-10-16T06:52:47;22.20;53.30
11491;DHT22;5802;52.832;4.758;2022-10-16T06:55:14;22.20;53.40
11491;DHT22;5802;52.832;4.758;2022-10-16T06:57:42;22.20;53.40
11491;DHT22;5802;52.832;4.758;2022-10-16T07:00:11;22.20;53.30
11491;DHT22;5802;52.832;4.758;2022-10-16T07:02:38;22.20;53.40
11491;DHT22;5802;52.832;4.758;2022-10-16T07:05:05;22.20;53.40
11491;DHT22;5802;52.832;4.758;2022-10-16T07:07:31;22.20;53.40
11491;DHT22;5802;52.832;4.758;2022-10-16T07:09:58;22.20;53.40
11491;DHT22;5802;52.832;4.758;2022-10-16T07:12:25;22.20;53.40
11491;DHT22;5802;52.832;4.758;2022-10-16T07:14:51;22.20;53.40
11491;DHT22;5802;52.832;4.758;2022-10-16T07:17:21;22.20;53.30
11491;DHT22;5802;52.832;4.758;2022-10-16T07:19:47;22.20;53.30
11491;DHT22;5802;52.832;4.758;2022-10-16T07:22:14;22.20;53.30
11491;DHT22;5802;52.832;4.758;2022-10-16T07:24:40;22.20;53.30
11491;DHT22;5802;52.832;4.758;2022-10-16T07:27:08;22.20;53.30
11491;DHT22;5802;52.832;4.758;2022-10-16T07:29:35;22.30;53.30
11491;DHT22;5802;52.832;4.758;2022-10-16T07:32:02;22.30;53.20
11491;DHT22;5802;52.832;4.758;2022-10-16T07:34:30;22.30;53.30
11491;DHT22;5802;52.832;4.758;2022-10-16T07:36:57;22.30;53.20
11491;DHT22;5802;52.832;4.758;2022-10-16T07:39:23;22.30;53.20
11491;DHT22;5802;52.832;4.758;2022-10-16T07:41:50;22.30;53.20
11491;DHT22;5802;52.832;4.758;2022-10-16T07:44:17;22.30;53.10
11491;DHT22;5802;52.832;4.758;2022-10-16T07:46:43;22.30;53.00
11491;DHT22;5802;52.832;4.758;2022-10-16T07:49:10;22.40;53.10
11491;DHT22;5802;52.832;4.758;2022-10-16T07:51:38;22.40;53.00
11491;DHT22;5802;52.832;4.758;2022-10-16T07:54:05;22.40;53.00
11491;DHT22;5802;52.832;4.758;2022-10-16T07:56:31;22.40;52.90
11491;DHT22;5802;52.832;4.758;2022-10-16T07:58:58;22.50;53.00
11491;DHT22;5802;52.832;4.758;2022-10-16T08:01:25;22.50;52.90
11491;DHT22;5802;52.832;4.758;2022-10-16T08:03:52;22.50;52.80
11491;DHT22;5802;52.832;4.758;2022-10-16T08:06:21;22.50;52.80
11491;DHT22;5802;52.832;4.758;2022-10-16T08:08:49;22.50;52.70
11491;DHT22;5802;52.832;4.758;2022-10-16T08:11:16;22.50;52.70
11491;DHT22;5802;52.832;4.758;2022-10-16T08:13:42;22.60;52.70
11491;DHT22;5802;52.832;4.758;2022-10-16T08:16:09;22.60;52.70
11491;DHT22;5802;52.832;4.758;2022-10-16T08:18:37;22.60;52.60
11491;DHT22;5802;52.832;4.758;2022-10-16T08:21:05;22.60;52.60
11491;DHT22;5802;52.832;4.758;2022-10-16T08:23:33;22.60;52.60
11491;DHT22;5802;52.832;4.758;2022-10-16T08:26:04;22.60;52.50
11491;DHT22;5802;52.832;4.758;2022-10-16T08:28:31;22.60;52.50
11491;DHT22;5802;52.832;4.758;2022-10-16T08:31:05;22.70;52.50
11491;DHT22;5802;52.832;4.758;2022-10-16T08:33:32;22.70;52.50
11491;DHT22;5802;52.832;4.758;2022-10-16T08:36:00;22.70;52.40
11491;DHT22;5802;52.832;4.758;2022-10-16T08:38:27;22.70;53.10
11491;DHT22;5802;52.832;4.758;2022-10-16T08:40:56;22.80;52.40
11491;DHT22;5802;52.832;4.758;2022-10-16T08:43:35;22.80;52.40
11491;DHT22;5802;52.832;4.758;2022-10-16T08:46:19;22.80;52.30
11491;DHT22;5802;52.832;4.758;2022-10-16T08:48:50;22.80;52.20
11491;DHT22;5802;52.832;4.758;2022-10-16T08:51:20;22.90;52.30
11491;DHT22;5802;52.832;4.758;2022-10-16T08:53:52;22.90;52.20
11491;DHT22;5802;52.832;4.758;2022-10-16T08:56:20;22.90;52.20
11491;DHT22;5802;52.832;4.758;2022-10-16T08:58:49;22.90;52.10
11491;DHT22;5802;52.832;4.758;2022-10-16T09:01:19;23.00;52.10
11491;DHT22;5802;52.832;4.758;2022-10-16T09:04:07;23.00;52.10
11491;DHT22;5802;52.832;4.758;2022-10-16T09:06:45;23.00;52.10
11491;DHT22;5802;52.832;4.758;2022-10-16T09:09:26;23.00;52.10
11491;DHT22;5802;52.832;4.758;2022-10-16T09:12:00;23.00;52.10
11491;DHT22;5802;52.832;4.758;2022-10-16T09:14:45;23.00;52.10
11491;DHT22;5802;52.832;4.758;2022-10-16T09:17:24;23.00;52.00
11491;DHT22;5802;52.832;4.758;2022-10-16T09:19:59;23.00;52.00
11491;DHT22;5802;52.832;4.758;2022-10-16T09:22:32;23.00;52.00
11491;DHT22;5802;52.832;4.758;2022-10-16T09:25:01;22.90;51.80
11491;DHT22;5802;52.832;4.758;2022-10-16T09:27:36;22.90;51.90
11491;DHT22;5802;52.832;4.758;2022-10-16T09:30:11;22.90;51.80
11491;DHT22;5802;52.832;4.758;2022-10-16T09:32:39;22.90;51.90
11491;DHT22;5802;52.832;4.758;2022-10-16T09:35:13;22.90;51.90
11491;DHT22;5802;52.832;4.758;2022-10-16T09:37:41;22.90;51.90
11491;DHT22;5802;52.832;4.758;2022-10-16T09:40:13;22.90;51.90
11491;DHT22;5802;52.832;4.758;2022-10-16T09:42:40;22.90;51.90
11491;DHT22;5802;52.832;4.758;2022-10-16T09:45:21;22.80;51.80
11491;DHT22;5802;52.832;4.758;2022-10-16T09:47:49;22.80;51.80
11491;DHT22;5802;52.832;4.758;2022-10-16T09:50:22;22.80;51.80
11491;DHT22;5802;52.832;4.758;2022-10-16T09:52:49;22.80;51.90
11491;DHT22;5802;52.832;4.758;2022-10-16T09:55:17;22.80;51.80
11491;DHT22;5802;52.832;4.758;2022-10-16T09:57:50;22.80;51.80
11491;DHT22;5802;52.832;4.758;2022-10-16T10:00:17;22.80;51.90
11491;DHT22;5802;52.832;4.758;2022-10-16T10:02:46;22.80;51.90
11491;DHT22;5802;52.832;4.758;2022-10-16T10:05:18;22.80;51.90
11491;DHT22;5802;52.832;4.758;2022-10-16T10:07:54;22.80;51.90
11491;DHT22;5802;52.832;4.758;2022-10-16T10:10:23;22.80;51.90
11491;DHT22;5802;52.832;4.758;2022-10-16T10:12:50;22.80;52.00
11491;DHT22;5802;52.832;4.758;2022-10-16T10:15:17;22.80;51.90
11491;DHT22;5802;52.832;4.758;2022-10-16T10:17:50;22.80;52.00
11491;DHT22;5802;52.832;4.758;2022-10-16T10:20:25;22.80;51.90
11491;DHT22;5802;52.832;4.758;2022-10-16T10:22:53;22.80;51.90
11491;DHT22;5802;52.832;4.758;2022-10-16T10:25:42;22.80;51.90
11491;DHT22;5802;52.832;4.758;2022-10-16T10:28:29;22.80;51.90
11491;DHT22;5802;52.832;4.758;2022-10-16T10:31:04;22.80;51.90
11491;DHT22;5802;52.832;4.758;2022-10-16T10:33:41;22.80;52.00
11491;DHT22;5802;52.832;4.758;2022-10-16T10:36:26;22.80;52.10
11491;DHT22;5802;52.832;4.758;2022-10-16T10:38:57;22.80;52.10
11491;DHT22;5802;52.832;4.758;2022-10-16T10:41:38;22.80;52.10
11491;DHT22;5802;52.832;4.758;2022-10-16T10:44:13;22.80;52.10
11491;DHT22;5802;52.832;4.758;2022-10-16T10:46:48;22.80;52.10
11491;DHT22;5802;52.832;4.758;2022-10-16T10:49:38;22.80;52.20
11491;DHT22;5802;52.832;4.758;2022-10-16T10:52:21;22.90;52.30
11491;DHT22;5802;52.832;4.758;2022-10-16T10:54:54;22.90;52.30
11491;DHT22;5802;52.832;4.758;2022-10-16T10:57:29;22.90;52.30
11491;DHT22;5802;52.832;4.758;2022-10-16T11:00:05;22.90;52.20
11491;DHT22;5802;52.832;4.758;2022-10-16T11:02:39;22.90;52.20
11491;DHT22;5802;52.832;4.758;2022-10-16T11:05:39;23.00;52.20
11491;DHT22;5802;52.832;4.758;2022-10-16T11:08:10;23.00;52.10
11491;DHT22;5802;52.832;4.758;2022-10-16T11:10:44;23.00;52.00
11491;DHT22;5802;52.832;4.758;2022-10-16T11:13:21;23.00;52.00
11491;DHT22;5802;52.832;4.758;2022-10-16T11:15:54;23.10;52.00
11491;DHT22;5802;52.832;4.758;2022-10-16T11:18:26;23.10;51.90
11491;DHT22;5802;52.832;4.758;2022-10-16T11:20:59;23.10;51.80
11491;DHT22;5802;52.832;4.758;2022-10-16T11:23:28;23.10;51.70
11491;DHT22;5802;52.832;4.758;2022-10-16T11:26:00;23.20;51.70
11491;DHT22;5802;52.832;4.758;2022-10-16T11:28:32;23.10;51.60
11491;DHT22;5802;52.832;4.758;2022-10-16T11:31:03;23.20;51.60
11491;DHT22;5802;52.832;4.758;2022-10-16T11:33:36;23.20;51.50
11491;DHT22;5802;52.832;4.758;2022-10-16T11:36:11;23.20;51.50
11491;DHT22;5802;52.832;4.758;2022-10-16T11:38:45;23.20;51.40
11491;DHT22;5802;52.832;4.758;2022-10-16T11:41:21;23.20;51.50
11491;DHT22;5802;52.832;4.758;2022-10-16T11:44:00;23.30;51.40
11491;DHT22;5802;52.832;4.758;2022-10-16T11:46:32;23.30;51.40
11491;DHT22;5802;52.832;4.758;2022-10-16T11:49:06;23.30;51.30
11491;DHT22;5802;52.832;4.758;2022-10-16T11:51:40;23.30;51.30
11491;DHT22;5802;52.832;4.758;2022-10-16T11:54:16;23.30;51.20
11491;DHT22;5802;52.832;4.758;2022-10-16T11:56:48;23.30;51.80
11491;DHT22;5802;52.832;4.758;2022-10-16T11:59:20;23.30;51.30
11491;DHT22;5802;52.832;4.758;2022-10-16T12:01:53;23.30;51.20
11491;DHT22;5802;52.832;4.758;2022-10-16T12:04:27;23.30;51.20
11491;DHT22;5802;52.832;4.758;2022-10-16T12:07:03;23.30;51.20
11491;DHT22;5802;52.832;4.758;2022-10-16T12:09:32;23.30;51.20
11491;DHT22;5802;52.832;4.758;2022-10-16T12:11:59;23.30;51.20
11491;DHT22;5802;52.832;4.758;2022-10-16T12:14:37;23.30;51.20
11491;DHT22;5802;52.832;4.758;2022-10-16T12:17:24;23.30;51.30
11491;DHT22;5802;52.832;4.758;2022-10-16T12:20:01;23.30;51.30
11491;DHT22;5802;52.832;4.758;2022-10-16T12:22:48;23.30;51.30
11491;DHT22;5802;52.832;4.758;2022-10-16T12:25:21;23.30;51.30
11491;DHT22;5802;52.832;4.758;2022-10-16T12:27:54;23.30;51.20
11491;DHT22;5802;52.832;4.758;2022-10-16T12:30:23;23.30;51.30
11491;DHT22;5802;52.832;4.758;2022-10-16T12:32:55;23.30;51.20
11491;DHT22;5802;52.832;4.758;2022-10-16T12:35:25;23.30;51.20
11491;DHT22;5802;52.832;4.758;2022-10-16T12:37:54;23.30;51.20
11491;DHT22;5802;52.832;4.758;2022-10-16T12:40:32;23.40;51.20
11491;DHT22;5802;52.832;4.758;2022-10-16T12:43:11;23.40;51.20
11491;DHT22;5802;52.832;4.758;2022-10-16T12:45:38;23.40;51.20
11491;DHT22;5802;52.832;4.758;2022-10-16T12:48:18;23.40;51.20
11491;DHT22;5802;52.832;4.758;2022-10-16T12:50:46;23.40;51.10
11491;DHT22;5802;52.832;4.758;2022-10-16T12:53:21;23.40;51.10
11491;DHT22;5802;52.832;4.758;2022-10-16T12:55:55;23.50;51.20
11491;DHT22;5802;52.832;4.758;2022-10-16T12:58:48;23.50;51.10
11491;DHT22;5802;52.832;4.758;2022-10-16T13:01:28;23.50;51.20
11491;DHT22;5802;52.832;4.758;2022-10-16T13:04:14;23.50;51.20
11491;DHT22;5802;52.832;4.758;2022-10-16T13:06:51;23.50;51.20
11491;DHT22;5802;52.832;4.758;2022-10-16T13:09:51;23.50;51.20
11491;DHT22;5802;52.832;4.758;2022-10-16T13:12:33;23.50;51.30
11491;DHT22;5802;52.832;4.758;2022-10-16T13:15:19;23.50;51.40
11491;DHT22;5802;52.832;4.758;2022-10-16T13:17:55;23.50;51.40
11491;DHT22;5802;52.832;4.758;2022-10-16T13:20:31;23.50;51.40
11491;DHT22;5802;52.832;4.758;2022-10-16T13:23:06;23.50;51.40
11491;DHT22;5802;52.832;4.758;2022-10-16T13:25:44;23.50;51.50
11491;DHT22;5802;52.832;4.758;2022-10-16T13:28:16;23.60;51.60
11491;DHT22;5802;52.832;4.758;2022-10-16T13:30:50;23.50;51.60
11491;DHT22;5802;52.832;4.758;2022-10-16T13:33:19;23.60;51.70
11491;DHT22;5802;52.832;4.758;2022-10-16T13:35:49;23.60;51.70
11491;DHT22;5802;52.832;4.758;2022-10-16T13:38:18;23.60;51.70
11491;DHT22;5802;52.832;4.758;2022-10-16T13:40:51;23.60;51.80
11491;DHT22;5802;52.832;4.758;2022-10-16T13:43:19;23.60;51.80
11491;DHT22;5802;52.832;4.758;2022-10-16T13:45:57;23.50;51.80
11491;DHT22;5802;52.832;4.758;2022-10-16T13:48:25;23.60;51.90
11491;DHT22;5802;52.832;4.758;2022-10-16T13:51:05;23.60;51.90
11491;DHT22;5802;52.832;4.758;2022-10-16T13:53:34;23.60;52.00
11491;DHT22;5802;52.832;4.758;2022-10-16T13:56:04;23.60;52.10
11491;DHT22;5802;52.832;4.758;2022-10-16T13:58:32;23.50;52.10
11491;DHT22;5802;52.832;4.758;2022-10-16T14:01:00;23.50;52.10
11491;DHT22;5802;52.832;4.758;2022-10-16T14:03:28;23.50;52.20
11491;DHT22;5802;52.832;4.758;2022-10-16T14:05:57;23.50;52.20
11491;DHT22;5802;52.832;4.758;2022-10-16T14:08:26;23.50;52.30
11491;DHT22;5802;52.832;4.758;2022-10-16T14:10:55;23.50;52.30
11491;DHT22;5802;52.832;4.758;2022-10-16T14:13:29;23.50;52.30
11491;DHT22;5802;52.832;4.758;2022-10-16T14:16:00;23.50;52.30
11491;DHT22;5802;52.832;4.758;2022-10-16T14:18:29;23.50;52.50
11491;DHT22;5802;52.832;4.758;2022-10-16T14:21:03;23.50;52.40
11491;DHT22;5802;52.832;4.758;2022-10-16T14:23:33;23.50;52.50
11491;DHT22;5802;52.832;4.758;2022-10-16T14:26:15;23.50;52.50
11491;DHT22;5802;52.832;4.758;2022-10-16T14:28:44;23.50;52.60
11491;DHT22;5802;52.832;4.758;2022-10-16T14:31:29;23.40;52.50
11491;DHT22;5802;52.832;4.758;2022-10-16T14:33:56;23.50;52.60
11491;DHT22;5802;52.832;4.758;2022-10-16T14:36:24;23.50;52.60
11491;DHT22;5802;52.832;4.758;2022-10-16T14:38:58;23.40;52.60
11491;DHT22;5802;52.832;4.758;2022-10-16T14:41:26;23.40;52.70
11491;DHT22;5802;52.832;4.758;2022-10-16T14:43:56;23.50;52.70
11491;DHT22;5802;52.832;4.758;2022-10-16T14:46:29;23.50;52.70
11491;DHT22;5802;52.832;4.758;2022-10-16T14:49:02;23.50;52.70
11491;DHT22;5802;52.832;4.758;2022-10-16T14:51:29;23.50;52.70
11491;DHT22;5802;52.832;4.758;2022-10-16T14:53:56;23.50;52.70
11491;DHT22;5802;52.832;4.758;2022-10-16T14:56:24;23.50;52.80
11491;DHT22;5802;52.832;4.758;2022-10-16T14:58:53;23.50;52.80
11491;DHT22;5802;52.832;4.758;2022-10-16T15:01:21;23.50;52.70
11491;DHT22;5802;52.832;4.758;2022-10-16T15:03:48;23.50;52.80
11491;DHT22;5802;52.832;4.758;2022-10-16T15:06:17;23.50;52.70
11491;DHT22;5802;52.832;4.758;2022-10-16T15:08:44;23.50;52.70
11491;DHT22;5802;52.832;4.758;2022-10-16T15:11:13;23.50;52.70
11491;DHT22;5802;52.832;4.758;2022-10-16T15:13:40;23.50;52.60
11491;DHT22;5802;52.832;4.758;2022-10-16T15:16:10;23.50;52.60
11491;DHT22;5802;52.832;4.758;2022-10-16T15:18:37;23.50;52.60
11491;DHT22;5802;52.832;4.758;2022-10-16T15:21:05;23.50;52.60
11491;DHT22;5802;52.832;4.758;2022-10-16T15:23:31;23.50;52.60
11491;DHT22;5802;52.832;4.758;2022-10-16T15:25:58;23.50;52.60
11491;DHT22;5802;52.832;4.758;2022-10-16T15:28:25;23.50;52.60
11491;DHT22;5802;52.832;4.758;2022-10-16T15:30:53;23.50;52.60
11491;DHT22;5802;52.832;4.758;2022-10-16T15:33:23;23.50;52.60
11491;DHT22;5802;52.832;4.758;2022-10-16T15:35:53;23.50;52.60
11491;DHT22;5802;52.832;4.758;2022-10-16T15:38:22;23.50;52.60
11491;DHT22;5802;52.832;4.758;2022-10-16T15:40:49;23.50;52.60
11491;DHT22;5802;52.832;4.758;2022-10-16T15:43:16;23.50;52.60
11491;DHT22;5802;52.832;4.758;2022-10-16T15:45:44;23.50;52.60
11491;DHT22;5802;52.832;4.758;2022-10-16T15:48:11;23.50;52.60
11491;DHT22;5802;52.832;4.758;2022-10-16T15:50:40;23.50;52.70
11491;DHT22;5802;52.832;4.758;2022-10-16T15:53:08;23.50;52.70
11491;DHT22;5802;52.832;4.758;2022-10-16T15:55:35;23.40;52.60
11491;DHT22;5802;52.832;4.758;2022-10-16T15:58:03;23.40;52.60
11491;DHT22;5802;52.832;4.758;2022-10-16T16:00:30;23.40;52.70
11491;DHT22;5802;52.832;4.758;2022-10-16T16:02:56;23.40;52.70
11491;DHT22;5802;52.832;4.758;2022-10-16T16:05:23;23.40;52.70